createdAt,value
2022-08-02T00:00:04.509Z,8.60
2022-08-02T00:01:04.879Z,9.90
2022-08-02T00:02:05.103Z,9.90
2022-08-02T00:03:05.253Z,8.80
2022-08-02T00:04:05.576Z,9.90
2022-08-02T00:05:05.829Z,9.70
2022-08-02T00:06:06.143Z,6.60
2022-08-02T00:07:06.385Z,9.30
2022-08-02T00:08:06.687Z,9.00
2022-08-02T00:09:07.025Z,8.60
2022-08-02T00:10:07.288Z,8.30
2022-08-02T00:11:07.990Z,7.30
2022-08-02T00:12:08.122Z,7.20
2022-08-02T00:13:08.171Z,8.70
2022-08-02T00:14:08.453Z,7.30
2022-08-02T00:15:08.731Z,9.50
2022-08-02T00:16:09.432Z,7.50
2022-08-02T00:17:09.302Z,11.00
2022-08-02T00:18:09.515Z,8.70
2022-08-02T00:19:09.845Z,9.00
2022-08-02T00:20:10.126Z,7.30
2022-08-02T00:21:10.382Z,8.60
2022-08-02T00:22:11.060Z,11.10
2022-08-02T00:23:10.986Z,8.50
2022-08-02T00:24:28.595Z,10.70
2022-08-02T00:25:12.561Z,9.50
2022-08-02T00:26:11.874Z,10.00
2022-08-02T00:27:12.218Z,9.40
2022-08-02T00:28:12.899Z,9.20
2022-08-02T00:29:12.737Z,8.70
2022-08-02T00:30:13.060Z,8.40
2022-08-02T00:31:14.257Z,8.00
2022-08-02T00:32:13.754Z,9.10
2022-08-02T00:33:13.902Z,10.00
2022-08-02T00:34:28.531Z,9.00
2022-08-02T00:35:15.388Z,27.60
2022-08-02T00:36:14.741Z,7.30
2022-08-02T00:37:15.075Z,8.50
2022-08-02T00:38:15.402Z,6.40
2022-08-02T00:39:33.867Z,7.40
2022-08-02T00:40:17.013Z,9.20
2022-08-02T00:41:16.305Z,8.10
2022-08-02T00:42:16.558Z,11.00
2022-08-02T00:43:16.851Z,9.40
2022-08-02T00:44:17.121Z,7.70
2022-08-02T00:45:17.388Z,8.40
2022-08-02T00:46:17.705Z,8.60
2022-08-02T00:47:19.154Z,8.20
2022-08-02T00:48:18.326Z,9.10
2022-08-02T00:49:18.683Z,8.90
2022-08-02T00:50:18.895Z,9.60
2022-08-02T00:51:19.151Z,7.30
2022-08-02T00:52:19.479Z,8.90
2022-08-02T00:53:19.754Z,12.50
2022-08-02T00:54:20.129Z,8.70
2022-08-02T00:55:30.840Z,9.90
2022-08-02T00:56:21.620Z,12.50
2022-08-02T00:57:20.861Z,9.40
2022-08-02T00:58:21.200Z,7.20
2022-08-02T00:59:21.482Z,8.50
2022-08-02T01:00:21.760Z,9.20
2022-08-02T01:01:22.134Z,8.00
2022-08-02T01:02:22.513Z,7.40
2022-08-02T01:03:22.666Z,6.70
2022-08-02T01:04:26.767Z,10.10
2022-08-02T01:05:24.257Z,11.80
2022-08-02T01:06:23.610Z,8.90
2022-08-02T01:07:23.864Z,9.40
2022-08-02T01:08:29.617Z,8.20
2022-08-02T01:09:25.512Z,7.80
2022-08-02T01:10:24.797Z,7.30
2022-08-02T01:11:25.051Z,6.60
2022-08-02T01:12:25.360Z,8.90
2022-08-02T01:13:25.633Z,7.70
2022-08-02T01:14:25.887Z,8.60
2022-08-02T01:15:35.608Z,9.20
2022-08-02T01:16:27.555Z,7.80
2022-08-02T01:17:26.774Z,6.00
2022-08-02T01:18:27.090Z,6.10
2022-08-02T01:19:27.350Z,7.80
2022-08-02T01:20:27.688Z,9.80
2022-08-02T01:21:27.964Z,7.10
2022-08-02T01:22:58.461Z,7.30
2022-08-02T01:23:29.601Z,8.80
2022-08-02T01:24:28.773Z,10.60
2022-08-02T01:25:29.028Z,7.50
2022-08-02T01:26:29.390Z,7.40
2022-08-02T01:27:29.576Z,6.10
2022-08-02T01:28:29.935Z,8.70
2022-08-02T01:29:30.256Z,12.00
2022-08-02T01:30:30.605Z,8.20
2022-08-02T01:31:30.772Z,7.10
2022-08-02T01:32:31.179Z,5.50
2022-08-02T01:33:31.405Z,6.50
2022-08-02T01:34:31.705Z,7.00
2022-08-02T01:35:50.981Z,6.30
2022-08-02T01:36:33.358Z,6.70
2022-08-02T01:37:32.632Z,5.60
2022-08-02T01:38:32.961Z,5.50
2022-08-02T01:39:33.206Z,7.20
2022-08-02T01:40:33.496Z,6.90
2022-08-02T01:41:33.777Z,6.40
2022-08-02T01:42:34.015Z,7.20
2022-08-02T01:43:34.285Z,6.40
2022-08-02T01:44:34.549Z,8.40
2022-08-02T01:45:34.945Z,6.80
2022-08-02T01:46:35.187Z,7.20
2022-08-02T01:47:35.441Z,6.40
2022-08-02T01:48:35.806Z,5.80
2022-08-02T01:49:36.115Z,6.30
2022-08-02T01:50:36.331Z,6.00
2022-08-02T01:51:36.606Z,7.00
2022-08-02T01:52:36.874Z,8.80
2022-08-02T01:53:37.196Z,7.00
2022-08-02T01:54:37.431Z,7.90
2022-08-02T01:55:57.698Z,9.70
2022-08-02T01:56:39.051Z,8.50
2022-08-02T01:57:41.848Z,8.30
2022-08-02T01:58:38.559Z,8.90
2022-08-02T01:59:38.766Z,8.10
2022-08-02T02:00:39.169Z,7.70
2022-08-02T02:01:39.555Z,7.90
2022-08-02T02:02:39.818Z,8.70
2022-08-02T02:03:41.779Z,6.20
2022-08-02T02:04:40.426Z,8.00
2022-08-02T02:05:40.723Z,7.90
2022-08-02T02:06:41.051Z,7.60
2022-08-02T02:07:41.316Z,8.60
2022-08-02T02:08:41.568Z,6.60
2022-08-02T02:09:50.088Z,6.20
2022-08-02T02:10:43.213Z,7.70
2022-08-02T02:12:10.951Z,7.50
2022-08-02T02:12:43.821Z,8.20
2022-08-02T02:13:43.160Z,6.60
2022-08-02T02:14:51.421Z,7.30
2022-08-02T02:15:44.606Z,6.80
2022-08-02T02:16:43.894Z,6.30
2022-08-02T02:18:11.342Z,7.80
2022-08-02T02:18:45.351Z,7.90
2022-08-02T02:19:44.708Z,7.80
2022-08-02T02:20:44.966Z,7.70
2022-08-02T02:21:45.227Z,7.40
2022-08-02T02:22:45.467Z,8.60
2022-08-02T02:23:45.750Z,6.70
2022-08-02T02:24:46.079Z,7.60
2022-08-02T02:25:46.774Z,5.50
2022-08-02T02:26:52.289Z,6.20
2022-08-02T02:27:48.009Z,8.20
2022-08-02T02:28:47.275Z,5.70
2022-08-02T02:29:47.623Z,6.90
2022-08-02T02:30:47.850Z,7.70
2022-08-02T02:31:48.120Z,8.10
2022-08-02T02:32:48.463Z,6.00
2022-08-02T02:33:48.710Z,7.10
2022-08-02T02:34:49.107Z,7.40
2022-08-02T02:35:49.319Z,6.80
2022-08-02T02:36:49.531Z,11.20
2022-08-02T02:37:49.799Z,9.30
2022-08-02T02:38:50.055Z,7.30
2022-08-02T02:39:50.351Z,6.20
2022-08-02T02:40:50.681Z,8.30
2022-08-02T02:41:51.006Z,7.40
2022-08-02T02:42:51.308Z,8.30
2022-08-02T02:43:51.444Z,6.00
2022-08-02T02:44:51.724Z,8.20
2022-08-02T02:45:52.100Z,6.90
2022-08-02T02:46:52.361Z,6.70
2022-08-02T02:47:52.619Z,7.20
2022-08-02T02:48:52.981Z,7.00
2022-08-02T02:49:53.264Z,5.70
2022-08-02T02:50:53.625Z,5.80
2022-08-02T02:51:53.920Z,8.00
2022-08-02T02:52:54.225Z,6.80
2022-08-02T02:54:32.847Z,6.60
2022-08-02T02:54:55.790Z,11.80
2022-08-02T02:56:01.662Z,7.20
2022-08-02T02:56:56.406Z,7.80
2022-08-02T02:57:55.665Z,8.10
2022-08-02T02:58:55.981Z,7.60
2022-08-02T02:59:56.321Z,7.00
2022-08-02T03:00:56.728Z,7.70
2022-08-02T03:01:58.128Z,6.90
2022-08-02T03:02:58.110Z,7.20
2022-08-02T03:03:57.411Z,6.90
2022-08-02T03:04:58.208Z,9.00
2022-08-02T03:05:58.004Z,6.90
2022-08-02T03:06:58.281Z,8.30
2022-08-02T03:07:58.570Z,6.50
2022-08-02T03:08:58.790Z,7.40
2022-08-02T03:09:59.095Z,7.20
2022-08-02T03:10:59.441Z,6.90
2022-08-02T03:11:59.684Z,8.10
2022-08-02T03:13:00.017Z,11.10
2022-08-02T03:14:00.312Z,8.80
2022-08-02T03:15:00.636Z,11.30
2022-08-02T03:16:00.935Z,8.60
2022-08-02T03:17:01.210Z,7.30
2022-08-02T03:18:01.514Z,8.50
2022-08-02T03:19:01.740Z,7.00
2022-08-02T03:20:02.122Z,11.40
2022-08-02T03:21:02.453Z,6.70
2022-08-02T03:22:02.685Z,8.60
2022-08-02T03:23:03.031Z,8.20
2022-08-02T03:24:03.214Z,7.30
2022-08-02T03:25:03.522Z,6.80
2022-08-02T03:26:03.945Z,7.80
2022-08-02T03:27:04.256Z,10.20
2022-08-02T03:28:04.528Z,8.00
2022-08-02T03:29:10.032Z,8.70
2022-08-02T03:30:06.049Z,8.60
2022-08-02T03:31:05.367Z,8.40
2022-08-02T03:32:05.652Z,7.30
2022-08-02T03:33:05.931Z,8.40
2022-08-02T03:34:06.095Z,9.20
2022-08-02T03:35:06.383Z,8.50
2022-08-02T03:36:06.696Z,7.00
2022-08-02T03:37:07.028Z,8.00
2022-08-02T03:38:08.195Z,9.20
2022-08-02T03:39:07.658Z,8.70
2022-08-02T03:40:07.811Z,6.70
2022-08-02T03:41:08.063Z,7.90
2022-08-02T03:42:08.450Z,8.20
2022-08-02T03:43:09.707Z,8.90
2022-08-02T03:44:08.962Z,8.20
2022-08-02T03:45:09.319Z,7.60
2022-08-02T03:46:09.752Z,7.80
2022-08-02T03:47:09.944Z,8.80
2022-08-02T03:48:33.897Z,9.30
2022-08-02T03:49:11.620Z,9.00
2022-08-02T03:50:10.681Z,9.40
2022-08-02T03:51:11.406Z,8.00
2022-08-02T03:52:11.575Z,7.20
2022-08-02T03:53:19.976Z,7.00
2022-08-02T03:54:12.865Z,7.40
2022-08-02T03:55:12.095Z,8.60
2022-08-02T03:56:12.404Z,9.00
2022-08-02T03:57:12.774Z,7.60
2022-08-02T03:58:13.042Z,5.80
2022-08-02T03:59:13.293Z,8.90
2022-08-02T04:00:13.456Z,8.10
2022-08-02T04:01:13.817Z,6.60
2022-08-02T04:02:14.368Z,7.80
2022-08-02T04:03:19.707Z,6.60
2022-08-02T04:04:15.588Z,6.20
2022-08-02T04:05:14.824Z,6.80
2022-08-02T04:06:15.863Z,7.40
2022-08-02T04:07:15.311Z,7.40
2022-08-02T04:08:36.301Z,6.50
2022-08-02T04:09:16.857Z,7.70
2022-08-02T04:10:16.200Z,7.60
2022-08-02T04:11:17.391Z,8.50
2022-08-02T04:12:16.773Z,8.90
2022-08-02T04:13:17.079Z,10.40
2022-08-02T04:14:17.430Z,8.20
2022-08-02T04:15:17.706Z,6.50
2022-08-02T04:16:18.023Z,8.40
2022-08-02T04:17:18.345Z,7.40
2022-08-02T04:18:18.749Z,8.60
2022-08-02T04:19:18.922Z,8.10
2022-08-02T04:20:19.133Z,10.40
2022-08-02T04:21:19.498Z,6.40
2022-08-02T04:22:20.245Z,8.00
2022-08-02T04:23:20.118Z,6.30
2022-08-02T04:24:20.379Z,8.80
2022-08-02T04:25:20.634Z,9.10
2022-08-02T04:26:26.896Z,8.20
2022-08-02T04:28:15.609Z,7.70
2022-08-02T04:28:27.510Z,9.50
2022-08-02T04:29:22.743Z,8.70
2022-08-02T04:30:21.965Z,8.60
2022-08-02T04:31:22.245Z,8.60
2022-08-02T04:32:22.470Z,8.50
2022-08-02T04:33:22.697Z,7.90
2022-08-02T04:34:22.982Z,6.50
2022-08-02T04:35:23.171Z,8.40
2022-08-02T04:36:31.111Z,10.80
2022-08-02T04:37:24.634Z,7.90
2022-08-02T04:38:23.914Z,9.00
2022-08-02T04:39:24.152Z,7.60
2022-08-02T04:40:24.357Z,6.90
2022-08-02T04:41:24.694Z,7.70
2022-08-02T04:42:25.043Z,9.90
2022-08-02T04:43:25.280Z,9.60
2022-08-02T04:44:25.524Z,10.60
2022-08-02T04:45:25.733Z,11.80
2022-08-02T04:46:26.148Z,8.20
2022-08-02T04:48:02.425Z,9.70
2022-08-02T04:48:27.704Z,10.20
2022-08-02T04:49:27.076Z,7.70
2022-08-02T04:50:27.179Z,12.70
2022-08-02T04:51:38.450Z,11.30
2022-08-02T04:52:28.791Z,18.20
2022-08-02T04:53:28.094Z,13.10
2022-08-02T04:54:28.312Z,11.40
2022-08-02T04:55:28.920Z,10.10
2022-08-02T04:56:28.823Z,11.50
2022-08-02T04:57:29.049Z,8.90
2022-08-02T04:58:44.816Z,11.40
2022-08-02T04:59:30.659Z,9.80
2022-08-02T05:00:29.885Z,10.40
2022-08-02T05:01:30.191Z,10.40
2022-08-02T05:02:30.393Z,10.90
2022-08-02T05:03:30.705Z,11.60
2022-08-02T05:04:30.927Z,12.60
2022-08-02T05:05:31.141Z,17.20
2022-08-02T05:06:31.501Z,10.60
2022-08-02T05:07:31.760Z,13.50
2022-08-02T05:08:32.960Z,10.40
2022-08-02T05:09:32.288Z,13.20
2022-08-02T05:10:32.498Z,11.20
2022-08-02T05:11:36.093Z,12.30
2022-08-02T05:12:33.055Z,10.30
2022-08-02T05:13:33.336Z,11.60
2022-08-02T05:14:34.582Z,11.80
2022-08-02T05:15:33.866Z,12.50
2022-08-02T05:16:34.072Z,13.00
2022-08-02T05:17:34.421Z,15.50
2022-08-02T05:18:34.710Z,13.80
2022-08-02T05:19:35.004Z,15.80
2022-08-02T05:20:35.217Z,17.60
2022-08-02T05:21:35.429Z,18.10
2022-08-02T05:22:35.788Z,16.00
2022-08-02T05:23:36.041Z,15.10
2022-08-02T05:24:36.368Z,30.20
2022-08-02T05:25:36.594Z,47.90
2022-08-02T05:26:36.826Z,21.10
2022-08-02T05:27:37.234Z,24.50
2022-08-02T05:28:37.494Z,17.80
2022-08-02T05:29:37.749Z,22.20
2022-08-02T05:30:37.971Z,26.20
2022-08-02T05:31:38.333Z,21.90
2022-08-02T05:32:38.543Z,15.80
2022-08-02T05:33:38.956Z,15.10
2022-08-02T05:34:39.172Z,12.20
2022-08-02T05:35:39.408Z,15.10
2022-08-02T05:36:41.317Z,13.50
2022-08-02T05:37:39.949Z,16.30
2022-08-02T05:38:40.270Z,11.40
2022-08-02T05:39:55.071Z,14.70
2022-08-02T05:40:54.268Z,12.10
2022-08-02T05:41:42.022Z,12.20
2022-08-02T05:42:41.312Z,13.70
2022-08-02T05:43:41.555Z,14.30
2022-08-02T05:44:41.781Z,14.70
2022-08-02T05:45:42.005Z,21.80
2022-08-02T05:46:42.277Z,8.90
2022-08-02T05:47:42.492Z,12.10
2022-08-02T05:48:42.784Z,15.70
2022-08-02T05:49:43.033Z,12.60
2022-08-02T05:50:43.251Z,9.90
2022-08-02T05:51:43.627Z,8.70
2022-08-02T05:52:45.088Z,12.40
2022-08-02T05:53:44.161Z,10.90
2022-08-02T05:54:44.912Z,10.00
2022-08-02T05:55:44.724Z,11.20
2022-08-02T05:56:44.953Z,15.20
2022-08-02T05:57:45.187Z,13.60
2022-08-02T05:58:45.416Z,11.90
2022-08-02T05:59:45.825Z,14.90
2022-08-02T06:00:46.022Z,13.80
2022-08-02T06:01:46.412Z,10.50
2022-08-02T06:02:46.658Z,9.40
2022-08-02T06:03:47.011Z,13.80
2022-08-02T06:04:47.235Z,11.90
2022-08-02T06:05:47.486Z,10.90
2022-08-02T06:06:47.917Z,10.20
2022-08-02T06:07:47.987Z,12.60
2022-08-02T06:08:48.440Z,10.40
2022-08-02T06:09:48.464Z,10.80
2022-08-02T06:10:48.861Z,10.90
2022-08-02T06:12:01.746Z,9.70
2022-08-02T06:12:50.432Z,10.60
2022-08-02T06:13:49.689Z,9.80
2022-08-02T06:14:52.598Z,10.00
2022-08-02T06:15:53.126Z,10.70
2022-08-02T06:16:50.447Z,8.60
2022-08-02T06:17:50.816Z,9.80
2022-08-02T06:18:51.543Z,9.70
2022-08-02T06:19:52.701Z,13.40
2022-08-02T06:20:51.705Z,11.30
2022-08-02T06:22:35.487Z,11.70
2022-08-02T06:22:53.233Z,8.30
2022-08-02T06:23:57.714Z,10.30
2022-08-02T06:24:53.705Z,12.90
2022-08-02T06:25:52.952Z,12.80
2022-08-02T06:26:53.187Z,10.30
2022-08-02T06:27:53.538Z,10.20
2022-08-02T06:28:53.759Z,10.30
2022-08-02T06:29:53.985Z,10.40
2022-08-02T06:30:54.370Z,10.30
2022-08-02T06:31:54.707Z,11.70
2022-08-02T06:32:54.911Z,10.30
2022-08-02T06:33:55.146Z,8.90
2022-08-02T06:34:55.549Z,15.60
2022-08-02T06:35:55.787Z,13.40
2022-08-02T06:36:56.023Z,12.80
2022-08-02T06:37:58.904Z,9.20
2022-08-02T06:38:56.554Z,11.00
2022-08-02T06:39:56.808Z,11.20
2022-08-02T06:40:57.095Z,14.40
2022-08-02T06:41:57.289Z,13.90
2022-08-02T06:42:57.531Z,10.70
2022-08-02T06:43:57.788Z,18.10
2022-08-02T06:44:58.487Z,11.50
2022-08-02T06:47:10.097Z,10.20
2022-08-02T06:47:12.489Z,7.40
2022-08-02T06:47:59.902Z,8.50
2022-08-02T06:48:59.270Z,10.20
2022-08-02T06:49:59.585Z,8.60
2022-08-02T06:50:59.823Z,12.50
2022-08-02T06:52:00.091Z,12.00
2022-08-02T06:53:00.390Z,8.50
2022-08-02T06:54:00.610Z,11.70
2022-08-02T06:55:00.862Z,8.00
2022-08-02T06:56:01.136Z,7.90
2022-08-02T06:57:01.382Z,8.40
2022-08-02T06:58:01.658Z,11.40
2022-08-02T06:59:05.787Z,10.50
2022-08-02T07:00:02.210Z,12.50
2022-08-02T07:01:02.412Z,13.00
2022-08-02T07:02:02.731Z,11.50
2022-08-02T07:03:03.030Z,12.00
2022-08-02T07:04:03.248Z,12.30
2022-08-02T07:05:03.591Z,12.60
2022-08-02T07:06:03.871Z,13.50
2022-08-02T07:07:04.098Z,13.30
2022-08-02T07:08:04.339Z,12.30
2022-08-02T07:09:20.440Z,14.50
2022-08-02T07:10:05.851Z,15.70
2022-08-02T07:11:05.131Z,18.70
2022-08-02T07:12:05.418Z,10.80
2022-08-02T07:13:05.656Z,13.80
2022-08-02T07:14:05.926Z,11.10
2022-08-02T07:15:06.187Z,15.10
2022-08-02T07:16:06.473Z,9.80
2022-08-02T07:17:06.695Z,11.10
2022-08-02T07:18:06.902Z,11.50
2022-08-02T07:19:07.275Z,13.10
2022-08-02T07:20:07.493Z,11.80
2022-08-02T07:21:08.811Z,9.10
2022-08-02T07:22:08.039Z,12.10
2022-08-02T07:23:08.318Z,13.70
2022-08-02T07:24:08.616Z,12.50
2022-08-02T07:25:08.867Z,19.50
2022-08-02T07:26:09.135Z,22.60
2022-08-02T07:27:11.757Z,23.70
2022-08-02T07:28:15.288Z,11.70
2022-08-02T07:29:11.056Z,11.90
2022-08-02T07:30:10.368Z,13.00
2022-08-02T07:31:10.608Z,12.50
2022-08-02T07:32:11.094Z,7.90
2022-08-02T07:33:11.152Z,9.60
2022-08-02T07:34:12.345Z,13.40
2022-08-02T07:35:11.614Z,14.30
2022-08-02T07:36:16.599Z,14.90
2022-08-02T07:37:23.503Z,22.90
2022-08-02T07:38:13.444Z,14.90
2022-08-02T07:39:12.688Z,17.40
2022-08-02T07:40:13.917Z,15.90
2022-08-02T07:41:13.229Z,15.80
2022-08-02T07:42:13.873Z,16.50
2022-08-02T07:43:13.729Z,19.40
2022-08-02T07:44:13.994Z,13.30
2022-08-02T07:45:14.284Z,8.80
2022-08-02T07:46:14.600Z,7.50
2022-08-02T07:47:14.776Z,13.20
2022-08-02T07:48:15.095Z,11.50
2022-08-02T07:49:15.377Z,14.60
2022-08-02T07:50:15.591Z,9.30
2022-08-02T07:51:17.422Z,10.50
2022-08-02T07:52:16.151Z,11.00
2022-08-02T07:53:16.411Z,9.70
2022-08-02T07:54:17.009Z,7.90
2022-08-02T07:55:17.084Z,9.80
2022-08-02T07:56:17.349Z,10.00
2022-08-02T07:57:17.618Z,11.80
2022-08-02T07:58:17.816Z,10.40
2022-08-02T07:59:18.061Z,7.60
2022-08-02T08:00:18.350Z,8.30
2022-08-02T08:01:18.951Z,10.80
2022-08-02T08:02:18.891Z,11.60
2022-08-02T08:03:19.165Z,8.50
2022-08-02T08:04:19.467Z,13.00
2022-08-02T08:05:19.684Z,9.20
2022-08-02T08:06:19.935Z,8.30
2022-08-02T08:07:21.249Z,8.30
2022-08-02T08:08:20.500Z,10.20
2022-08-02T08:09:20.765Z,8.70
2022-08-02T08:10:21.502Z,6.00
2022-08-02T08:11:21.405Z,8.50
2022-08-02T08:12:21.750Z,9.40
2022-08-02T08:13:22.109Z,12.00
2022-08-02T08:14:22.340Z,13.60
2022-08-02T08:15:22.629Z,10.00
2022-08-02T08:16:22.900Z,8.80
2022-08-02T08:17:23.152Z,9.80
2022-08-02T08:18:23.424Z,10.70
2022-08-02T08:19:43.964Z,9.20
2022-08-02T08:20:25.053Z,9.20
2022-08-02T08:21:24.325Z,9.10
2022-08-02T08:22:24.544Z,7.60
2022-08-02T08:23:24.874Z,9.80
2022-08-02T08:24:25.227Z,8.50
2022-08-02T08:25:27.288Z,11.10
2022-08-02T08:26:25.712Z,8.30
2022-08-02T08:27:26.099Z,8.00
2022-08-02T08:28:26.333Z,7.40
2022-08-02T08:29:26.628Z,7.50
2022-08-02T08:30:26.848Z,6.00
2022-08-02T08:31:27.107Z,8.60
2022-08-02T08:32:27.335Z,8.10
2022-08-02T08:33:27.677Z,7.80
2022-08-02T08:34:28.058Z,12.20
2022-08-02T08:35:28.327Z,7.00
2022-08-02T08:36:28.616Z,5.20
2022-08-02T08:37:28.812Z,6.60
2022-08-02T08:38:29.197Z,5.30
2022-08-02T08:39:29.562Z,5.20
2022-08-02T08:40:29.764Z,4.80
2022-08-02T08:41:30.153Z,6.40
2022-08-02T08:42:30.235Z,5.40
2022-08-02T08:43:30.571Z,9.30
2022-08-02T08:44:30.932Z,14.30
2022-08-02T08:45:31.312Z,12.80
2022-08-02T08:46:31.529Z,6.20
2022-08-02T08:47:33.828Z,8.90
2022-08-02T08:48:32.157Z,6.90
2022-08-02T08:49:32.462Z,5.60
2022-08-02T08:50:32.682Z,9.70
2022-08-02T08:51:32.952Z,8.60
2022-08-02T08:52:33.167Z,6.70
2022-08-02T08:53:36.473Z,4.30
2022-08-02T08:54:33.678Z,7.10
2022-08-02T08:55:33.917Z,5.50
2022-08-02T08:56:34.156Z,4.40
2022-08-02T08:57:34.397Z,5.90
2022-08-02T08:58:34.676Z,7.00
2022-08-02T08:59:39.235Z,7.00
2022-08-02T09:00:35.436Z,6.10
2022-08-02T09:01:49.852Z,6.20
2022-08-02T09:02:36.823Z,5.00
2022-08-02T09:03:36.116Z,7.50
2022-08-02T09:04:36.383Z,6.70
2022-08-02T09:05:36.598Z,8.10
2022-08-02T09:06:36.890Z,8.30
2022-08-02T09:07:37.209Z,7.20
2022-08-02T09:08:37.390Z,5.10
2022-08-02T09:09:37.793Z,6.30
2022-08-02T09:10:38.061Z,7.20
2022-08-02T09:11:38.285Z,14.90
2022-08-02T09:12:38.561Z,9.00
2022-08-02T09:13:46.035Z,8.90
2022-08-02T09:14:40.098Z,8.90
2022-08-02T09:15:39.463Z,10.00
2022-08-02T09:16:39.752Z,15.00
2022-08-02T09:17:40.004Z,6.70
2022-08-02T09:18:40.361Z,8.60
2022-08-02T09:19:45.862Z,7.00
2022-08-02T09:20:41.934Z,5.50
2022-08-02T09:21:41.169Z,6.60
2022-08-02T09:22:41.542Z,6.60
2022-08-02T09:23:41.792Z,7.40
2022-08-02T09:24:42.079Z,6.70
2022-08-02T09:25:42.279Z,5.00
2022-08-02T09:26:43.619Z,6.90
2022-08-02T09:27:42.851Z,4.70
2022-08-02T09:28:43.125Z,6.30
2022-08-02T09:30:05.896Z,6.00
2022-08-02T09:30:44.636Z,6.00
2022-08-02T09:31:49.959Z,6.80
2022-08-02T09:32:45.237Z,5.40
2022-08-02T09:33:44.478Z,7.80
2022-08-02T09:34:45.676Z,7.90
2022-08-02T09:36:07.355Z,6.80
2022-08-02T09:36:46.546Z,6.50
2022-08-02T09:37:48.684Z,6.60
2022-08-02T09:38:46.085Z,7.80
2022-08-02T09:39:46.604Z,6.90
2022-08-02T09:40:46.707Z,8.90
2022-08-02T09:41:46.964Z,8.70
2022-08-02T09:42:47.199Z,10.60
2022-08-02T09:43:51.834Z,8.80
2022-08-02T09:44:48.765Z,8.50
2022-08-02T09:45:47.981Z,6.30
2022-08-02T09:46:48.359Z,8.80
2022-08-02T09:47:48.608Z,6.80
2022-08-02T09:48:48.854Z,7.30
2022-08-02T09:49:52.509Z,7.90
2022-08-02T09:50:49.398Z,9.30
2022-08-02T09:51:49.623Z,7.60
2022-08-02T09:52:49.920Z,5.80
2022-08-02T09:53:50.103Z,7.00
2022-08-02T09:54:50.432Z,5.50
2022-08-02T09:55:50.651Z,4.80
2022-08-02T09:56:51.009Z,4.80
2022-08-02T09:57:51.672Z,6.70
2022-08-02T09:58:51.460Z,6.00
2022-08-02T09:59:51.795Z,5.70
2022-08-02T10:00:52.797Z,6.00
2022-08-02T10:02:01.441Z,7.00
2022-08-02T10:02:53.544Z,6.60
2022-08-02T10:03:53.771Z,9.30
2022-08-02T10:04:54.271Z,7.20
2022-08-02T10:05:55.648Z,4.90
2022-08-02T10:06:53.790Z,7.00
2022-08-02T10:07:54.006Z,6.00
2022-08-02T10:08:54.417Z,7.60
2022-08-02T10:09:54.640Z,10.60
2022-08-02T10:10:54.889Z,7.70
2022-08-02T10:11:55.152Z,9.40
2022-08-02T10:12:55.384Z,7.20
2022-08-02T10:13:55.679Z,8.40
2022-08-02T10:14:55.892Z,5.90
2022-08-02T10:15:56.129Z,9.10
2022-08-02T10:16:56.530Z,8.50
2022-08-02T10:17:56.782Z,8.30
2022-08-02T10:18:57.048Z,8.80
2022-08-02T10:20:00.337Z,6.10
2022-08-02T10:20:58.604Z,6.50
2022-08-02T10:21:57.855Z,7.40
2022-08-02T10:22:58.105Z,5.80
2022-08-02T10:23:58.376Z,10.20
2022-08-02T10:24:58.655Z,5.30
2022-08-02T10:26:00.318Z,6.40
2022-08-02T10:26:59.199Z,7.10
2022-08-02T10:28:06.375Z,5.80
2022-08-02T10:29:00.653Z,5.90
2022-08-02T10:29:59.963Z,7.40
2022-08-02T10:31:00.134Z,7.50
2022-08-02T10:32:00.515Z,7.00
2022-08-02T10:33:00.797Z,8.50
2022-08-02T10:34:01.025Z,7.00
2022-08-02T10:35:19.124Z,7.10
2022-08-02T10:36:04.413Z,7.70
2022-08-02T10:37:01.975Z,6.90
2022-08-02T10:38:02.231Z,6.30
2022-08-02T10:39:02.417Z,6.80
2022-08-02T10:40:02.799Z,8.00
2022-08-02T10:41:03.076Z,6.00
2022-08-02T10:42:03.331Z,8.90
2022-08-02T10:43:03.701Z,7.60
2022-08-02T10:44:03.891Z,8.50
2022-08-02T10:45:04.149Z,8.10
2022-08-02T10:46:04.438Z,6.30
2022-08-02T10:47:04.694Z,9.50
2022-08-02T10:48:04.899Z,8.30
2022-08-02T10:49:36.240Z,7.80
2022-08-02T10:50:06.419Z,7.20
2022-08-02T10:51:05.693Z,8.70
2022-08-02T10:52:05.904Z,8.50
2022-08-02T10:53:06.243Z,9.40
2022-08-02T10:54:06.612Z,6.20
2022-08-02T10:55:13.253Z,8.40
2022-08-02T10:56:09.293Z,8.50
2022-08-02T10:57:07.410Z,9.00
2022-08-02T10:58:07.607Z,7.70
2022-08-02T10:59:07.883Z,7.00
2022-08-02T11:00:08.163Z,9.90
2022-08-02T11:01:08.496Z,7.00
2022-08-02T11:02:08.729Z,5.70
2022-08-02T11:03:09.005Z,9.00
2022-08-02T11:04:10.765Z,7.40
2022-08-02T11:05:09.601Z,9.10
2022-08-02T11:06:09.832Z,6.90
2022-08-02T11:07:11.171Z,8.00
2022-08-02T11:08:10.405Z,5.90
2022-08-02T11:09:10.780Z,7.70
2022-08-02T11:10:11.082Z,8.50
2022-08-02T11:11:11.320Z,7.10
2022-08-02T11:12:11.745Z,5.90
2022-08-02T11:13:11.816Z,6.30
2022-08-02T11:14:12.146Z,7.50
2022-08-02T11:15:12.327Z,7.70
2022-08-02T11:16:12.573Z,7.20
2022-08-02T11:17:12.832Z,7.50
2022-08-02T11:18:13.034Z,7.90
2022-08-02T11:19:13.781Z,8.10
2022-08-02T11:20:13.601Z,8.60
2022-08-02T11:21:13.950Z,6.90
2022-08-02T11:22:14.651Z,6.10
2022-08-02T11:23:14.469Z,8.30
2022-08-02T11:24:14.772Z,6.50
2022-08-02T11:25:15.078Z,7.00
2022-08-02T11:26:15.322Z,7.10
2022-08-02T11:27:15.566Z,7.70
2022-08-02T11:28:15.882Z,10.20
2022-08-02T11:29:16.350Z,7.60
2022-08-02T11:30:16.438Z,7.80
2022-08-02T11:31:16.819Z,8.60
2022-08-02T11:32:17.091Z,9.50
2022-08-02T11:33:17.331Z,8.30
2022-08-02T11:34:36.599Z,8.70
2022-08-02T11:35:18.805Z,8.90
2022-08-02T11:36:18.143Z,8.60
2022-08-02T11:37:18.381Z,8.80
2022-08-02T11:38:18.622Z,8.70
2022-08-02T11:39:18.994Z,8.70
2022-08-02T11:40:20.186Z,8.60
2022-08-02T11:41:47.035Z,8.50
2022-08-02T11:42:20.934Z,10.10
2022-08-02T11:43:20.026Z,8.70
2022-08-02T11:44:20.362Z,8.10
2022-08-02T11:45:21.312Z,12.00
2022-08-02T11:46:20.935Z,9.50
2022-08-02T11:47:21.193Z,8.70
2022-08-02T11:48:21.407Z,6.70
2022-08-02T11:49:21.838Z,11.80
2022-08-02T11:50:29.499Z,10.30
2022-08-02T11:51:23.414Z,7.70
2022-08-02T11:52:22.576Z,7.70
2022-08-02T11:53:22.918Z,8.30
2022-08-02T11:54:23.183Z,8.20
2022-08-02T11:55:23.424Z,6.10
2022-08-02T11:56:25.176Z,5.90
2022-08-02T11:57:23.910Z,7.80
2022-08-02T11:58:24.314Z,6.30
2022-08-02T11:59:24.542Z,8.60
2022-08-02T12:00:27.021Z,6.80
2022-08-02T12:01:26.205Z,8.90
2022-08-02T12:02:25.436Z,8.90
2022-08-02T12:03:25.872Z,7.40
2022-08-02T12:04:26.074Z,8.50
2022-08-02T12:05:51.204Z,7.90
2022-08-02T12:06:28.298Z,8.40
2022-08-02T12:07:33.601Z,8.50
2022-08-02T12:08:28.137Z,9.60
2022-08-02T12:09:27.402Z,5.40
2022-08-02T12:10:27.638Z,7.70
2022-08-02T12:11:27.874Z,7.80
2022-08-02T12:12:29.129Z,7.00
2022-08-02T12:13:28.378Z,9.90
2022-08-02T12:14:28.626Z,7.40
2022-08-02T12:15:29.257Z,6.20
2022-08-02T12:16:29.235Z,10.10
2022-08-02T12:17:29.467Z,8.30
2022-08-02T12:18:29.880Z,8.00
2022-08-02T12:19:29.946Z,8.80
2022-08-02T12:20:30.320Z,8.50
2022-08-02T12:21:30.687Z,7.40
2022-08-02T12:22:30.896Z,9.10
2022-08-02T12:23:31.267Z,7.60
2022-08-02T12:24:31.560Z,9.30
2022-08-02T12:25:34.415Z,9.90
2022-08-02T12:26:32.067Z,6.30
2022-08-02T12:27:32.441Z,6.30
2022-08-02T12:28:32.631Z,11.20
2022-08-02T12:29:58.376Z,8.80
2022-08-02T12:30:34.121Z,8.60
2022-08-02T12:31:35.250Z,9.50
2022-08-02T12:32:34.792Z,8.30
2022-08-02T12:33:37.747Z,7.30
2022-08-02T12:34:35.156Z,7.80
2022-08-02T12:35:34.406Z,5.90
2022-08-02T12:36:34.674Z,7.60
2022-08-02T12:37:34.882Z,5.40
2022-08-02T12:38:35.212Z,6.70
2022-08-02T12:39:35.601Z,5.80
2022-08-02T12:40:35.831Z,5.10
2022-08-02T12:41:36.185Z,6.50
2022-08-02T12:42:36.397Z,5.90
2022-08-02T12:43:36.827Z,7.50
2022-08-02T12:44:37.141Z,5.40
2022-08-02T12:45:40.654Z,7.40
2022-08-02T12:46:42.104Z,4.80
2022-08-02T12:47:38.864Z,6.10
2022-08-02T12:48:40.443Z,9.50
2022-08-02T12:49:39.418Z,9.10
2022-08-02T12:50:38.659Z,8.70
2022-08-02T12:51:55.790Z,6.80
2022-08-02T12:52:40.415Z,4.90
2022-08-02T12:53:39.718Z,9.60
2022-08-02T12:54:39.947Z,6.90
2022-08-02T12:56:01.905Z,5.20
2022-08-02T12:56:41.437Z,6.40
2022-08-02T12:57:41.103Z,6.10
2022-08-02T12:58:41.075Z,5.90
2022-08-02T12:59:41.414Z,6.30
2022-08-02T13:00:41.632Z,6.10
2022-08-02T13:01:41.884Z,7.80
2022-08-02T13:02:42.317Z,6.50
2022-08-02T13:04:09.556Z,8.50
2022-08-02T13:04:50.202Z,5.50
2022-08-02T13:05:56.937Z,6.10
2022-08-02T13:06:45.428Z,7.20
2022-08-02T13:07:43.571Z,6.30
2022-08-02T13:08:43.996Z,7.40
2022-08-02T13:09:44.319Z,6.30
2022-08-02T13:10:44.520Z,11.90
2022-08-02T13:11:44.819Z,9.00
2022-08-02T13:12:45.093Z,5.30
2022-08-02T13:13:45.327Z,4.80
2022-08-02T13:14:45.656Z,6.60